createdAt,value
2019-06-25T00:00:25.651Z,2.47
2019-06-25T00:02:55.560Z,2.87
2019-06-25T00:05:25.281Z,2.70
2019-06-25T00:07:55.052Z,2.67
2019-06-25T00:10:24.811Z,3.00
2019-06-25T00:12:54.525Z,2.80
2019-06-25T00:15:24.403Z,2.53
2019-06-25T00:17:54.098Z,2.73
2019-06-25T00:20:23.876Z,2.50
2019-06-25T00:22:53.548Z,2.53
2019-06-25T00:25:23.326Z,2.93
2019-06-25T00:27:53.016Z,2.80
2019-06-25T00:30:22.783Z,3.13
2019-06-25T00:32:52.477Z,2.70
2019-06-25T00:35:22.277Z,2.80
2019-06-25T00:37:52.006Z,2.83
2019-06-25T00:40:21.801Z,3.10
2019-06-25T00:42:51.482Z,3.20
2019-06-25T00:45:21.183Z,2.80
2019-06-25T00:47:50.860Z,2.80
2019-06-25T00:50:20.805Z,3.10
2019-06-25T00:52:50.485Z,3.17
2019-06-25T00:55:20.210Z,3.60
2019-06-25T00:57:49.960Z,3.37
2019-06-25T01:00:20.915Z,3.30
2019-06-25T01:03:05.132Z,3.70
2019-06-25T01:05:34.905Z,3.33
2019-06-25T01:08:04.680Z,3.17
2019-06-25T01:10:34.420Z,3.50
2019-06-25T01:13:04.213Z,3.50
2019-06-25T01:15:34.022Z,3.67
2019-06-25T01:18:03.769Z,3.17
2019-06-25T01:20:33.465Z,3.30
2019-06-25T01:23:03.148Z,3.13
2019-06-25T01:25:32.833Z,3.70
2019-06-25T01:28:02.597Z,3.40
2019-06-25T01:30:32.291Z,3.40
2019-06-25T01:33:02.018Z,3.43
2019-06-25T01:35:31.818Z,3.10
2019-06-25T01:38:01.527Z,3.50
2019-06-25T01:40:31.356Z,3.30
2019-06-25T01:43:01.052Z,3.73
2019-06-25T01:45:30.899Z,3.40
2019-06-25T01:48:00.638Z,4.07
2019-06-25T01:50:30.425Z,3.23
2019-06-25T01:53:02.112Z,3.13
2019-06-25T01:55:31.580Z,3.53
2019-06-25T01:58:01.328Z,3.57
2019-06-25T02:00:43.911Z,3.80
2019-06-25T02:03:02.579Z,4.00
2019-06-25T02:05:32.430Z,3.30
2019-06-25T02:08:02.280Z,4.30
2019-06-25T02:10:32.133Z,4.10
2019-06-25T02:13:01.813Z,3.73
2019-06-25T02:15:31.605Z,3.70
2019-06-25T02:18:01.441Z,3.80
2019-06-25T02:20:31.212Z,3.80
2019-06-25T02:23:00.962Z,3.87
2019-06-25T02:25:30.737Z,3.60
2019-06-25T02:28:00.634Z,4.37
2019-06-25T02:30:30.425Z,3.77
2019-06-25T02:33:00.199Z,3.47
2019-06-25T02:35:29.905Z,4.00
2019-06-25T02:37:59.581Z,4.03
2019-06-25T02:40:29.350Z,3.57
2019-06-25T02:42:59.116Z,3.83
2019-06-25T02:45:28.817Z,4.30
2019-06-25T02:47:58.499Z,4.07
2019-06-25T02:50:28.263Z,3.90
2019-06-25T02:52:58.084Z,3.57
2019-06-25T02:55:27.783Z,4.27
2019-06-25T02:57:57.550Z,3.93
2019-06-25T03:00:27.236Z,3.90
2019-06-25T03:02:57.068Z,4.30
2019-06-25T03:05:26.909Z,4.30
2019-06-25T03:07:56.741Z,4.13
2019-06-25T03:10:26.513Z,3.90
2019-06-25T03:12:56.259Z,3.90
2019-06-25T03:15:26.126Z,4.20
2019-06-25T03:17:55.801Z,4.30
2019-06-25T03:20:26.269Z,3.50
2019-06-25T03:22:56.030Z,3.80
2019-06-25T03:25:25.877Z,3.97
2019-06-25T03:27:55.714Z,4.50
2019-06-25T03:30:25.664Z,4.03
2019-06-25T03:32:55.366Z,3.50
2019-06-25T03:35:25.223Z,4.10
2019-06-25T03:37:55.022Z,4.77
2019-06-25T03:40:24.809Z,4.20
2019-06-25T03:42:54.491Z,4.80
2019-06-25T03:45:24.176Z,4.00
2019-06-25T03:47:53.950Z,4.40
2019-06-25T03:50:23.803Z,4.10
2019-06-25T03:52:53.557Z,4.30
2019-06-25T03:55:23.325Z,4.20
2019-06-25T03:57:53.104Z,3.80
2019-06-25T04:00:23.020Z,4.20
2019-06-25T04:02:52.850Z,4.60
2019-06-25T04:05:22.558Z,4.50
2019-06-25T04:07:52.457Z,4.10
2019-06-25T04:10:22.153Z,4.40
2019-06-25T04:12:51.907Z,4.37
2019-06-25T04:15:21.737Z,4.80
2019-06-25T04:17:51.418Z,4.40
2019-06-25T04:20:21.273Z,4.20
2019-06-25T04:22:50.949Z,4.20
2019-06-25T04:25:20.743Z,4.10
2019-06-25T04:27:50.503Z,4.53
2019-06-25T04:30:20.368Z,4.40
2019-06-25T04:32:50.190Z,4.50
2019-06-25T04:35:19.900Z,5.03
2019-06-25T04:37:49.606Z,4.80
2019-06-25T04:40:19.888Z,4.20
2019-06-25T04:42:49.645Z,3.90
2019-06-25T04:45:19.584Z,4.70
2019-06-25T04:47:49.353Z,4.40
2019-06-25T04:50:19.396Z,4.43
2019-06-25T04:52:49.089Z,4.60
2019-06-25T04:55:19.016Z,3.90
2019-06-25T04:57:48.942Z,4.63
2019-06-25T05:00:21.706Z,4.00
2019-06-25T05:02:51.414Z,4.23
2019-06-25T05:05:21.179Z,3.87
2019-06-25T05:07:50.954Z,4.30
2019-06-25T05:10:21.359Z,4.03
2019-06-25T05:12:51.147Z,4.00
2019-06-25T05:15:20.985Z,3.83
2019-06-25T05:17:50.758Z,3.87
2019-06-25T05:20:20.579Z,4.43
2019-06-25T05:22:50.421Z,3.87
2019-06-25T05:25:20.355Z,3.80
2019-06-25T05:27:50.362Z,3.87
2019-06-25T05:30:21.361Z,3.67
2019-06-25T05:33:04.309Z,3.73
2019-06-25T05:35:24.295Z,3.77
2019-06-25T05:37:55.307Z,4.43
2019-06-25T05:40:24.986Z,4.00
2019-06-25T05:42:54.691Z,3.80
2019-06-25T05:45:24.726Z,3.50
2019-06-25T05:47:54.504Z,3.87
2019-06-25T05:50:24.530Z,4.00
2019-06-25T05:52:54.216Z,3.57
2019-06-25T05:55:23.987Z,4.10
2019-06-25T05:57:53.695Z,3.50
2019-06-25T06:00:24.588Z,3.70
2019-06-25T06:02:54.442Z,3.90
2019-06-25T06:05:24.134Z,3.67
2019-06-25T06:07:53.913Z,3.47
2019-06-25T06:10:23.953Z,3.77
2019-06-25T06:12:53.829Z,3.50
2019-06-25T06:15:23.870Z,4.70
2019-06-25T06:18:25.069Z,4.17
2019-06-25T06:20:54.821Z,4.10
2019-06-25T06:23:24.670Z,3.83
2019-06-25T06:25:54.505Z,4.03
2019-06-25T06:28:24.463Z,3.70
2019-06-25T06:30:54.373Z,4.03
2019-06-25T06:33:36.027Z,4.50
2019-06-25T06:35:56.463Z,4.03
2019-06-25T06:38:26.564Z,3.53
2019-06-25T06:40:56.366Z,4.03
2019-06-25T06:43:26.258Z,4.40
2019-06-25T06:45:56.170Z,4.50
2019-06-25T06:48:26.022Z,4.13
2019-06-25T06:50:56.152Z,4.80
2019-06-25T06:53:25.924Z,4.00
2019-06-25T06:55:55.754Z,4.70
2019-06-25T06:58:25.481Z,4.50
2019-06-25T07:00:55.390Z,4.97
2019-06-25T07:03:25.318Z,4.80
2019-06-25T07:05:55.106Z,4.27
2019-06-25T07:08:25.162Z,5.00
2019-06-25T07:10:55.063Z,4.90
2019-06-25T07:13:24.913Z,4.80
2019-06-25T07:15:54.754Z,5.53
2019-06-25T07:18:24.677Z,4.73
2019-06-25T07:20:54.476Z,5.03
2019-06-25T07:23:24.337Z,4.90
2019-06-25T07:25:54.242Z,5.07
2019-06-25T07:28:24.116Z,4.60
2019-06-25T07:30:53.888Z,5.20
2019-06-25T07:33:23.884Z,4.83
2019-06-25T07:35:53.749Z,4.80
2019-06-25T07:38:23.965Z,5.50
2019-06-25T07:40:53.650Z,5.30
2019-06-25T07:43:23.543Z,4.90
2019-06-25T07:45:53.397Z,4.70
2019-06-25T07:48:23.281Z,4.67
2019-06-25T07:50:53.077Z,4.60
2019-06-25T07:53:22.884Z,4.40
2019-06-25T07:55:53.151Z,5.20
2019-06-25T07:58:24.062Z,5.20
2019-06-25T08:00:54.148Z,4.70
2019-06-25T08:03:24.286Z,4.43
2019-06-25T08:05:54.153Z,4.67
2019-06-25T08:08:23.910Z,4.43
2019-06-25T08:10:53.679Z,4.60
2019-06-25T08:13:23.634Z,4.93
2019-06-25T08:15:53.420Z,4.50
2019-06-25T08:18:23.279Z,4.43
2019-06-25T08:20:53.246Z,4.83
2019-06-25T08:23:23.012Z,5.00
2019-06-25T08:25:52.873Z,4.67
2019-06-25T08:28:22.805Z,4.83
2019-06-25T08:30:52.502Z,5.00
2019-06-25T08:33:22.448Z,4.43
2019-06-25T08:35:52.225Z,4.90
2019-06-25T08:38:21.987Z,4.50
2019-06-25T08:40:51.685Z,5.10
2019-06-25T08:43:21.458Z,4.57
2019-06-25T08:45:51.266Z,4.50
2019-06-25T08:48:21.012Z,4.27
2019-06-25T08:50:50.947Z,4.40
2019-06-25T08:53:21.673Z,4.77
2019-06-25T08:55:51.442Z,4.20
2019-06-25T08:58:21.279Z,4.00
2019-06-25T09:00:50.991Z,4.37
2019-06-25T09:03:20.765Z,4.60
2019-06-25T09:05:51.567Z,4.37
2019-06-25T09:08:21.259Z,4.43
2019-06-25T09:10:51.117Z,4.20
2019-06-25T09:13:20.806Z,4.17
2019-06-25T09:15:50.622Z,4.40
2019-06-25T09:18:20.444Z,4.00
2019-06-25T09:20:50.269Z,4.00
2019-06-25T09:23:20.098Z,4.07
2019-06-25T09:25:50.098Z,3.70
2019-06-25T09:28:19.880Z,4.40
2019-06-25T09:30:49.640Z,4.00
2019-06-25T09:33:19.418Z,4.20
2019-06-25T09:35:49.314Z,3.73
2019-06-25T09:38:19.013Z,3.87
2019-06-25T09:40:47.473Z,3.90
2019-06-25T09:43:15.838Z,3.70
2019-06-25T09:45:45.905Z,3.90
2019-06-25T09:48:15.973Z,3.70
2019-06-25T09:50:46.218Z,4.20
2019-06-25T09:53:16.045Z,3.60
2019-06-25T09:55:45.756Z,3.63
2019-06-25T09:58:15.547Z,3.40
2019-06-25T10:00:56.139Z,4.13
2019-06-25T10:03:26.089Z,3.80
2019-06-25T10:05:55.996Z,3.30
2019-06-25T10:08:25.752Z,3.87
2019-06-25T10:10:55.615Z,3.10
2019-06-25T10:13:25.451Z,3.40
2019-06-25T10:15:55.234Z,3.50
2019-06-25T10:18:24.988Z,3.50
2019-06-25T10:20:54.719Z,3.17
2019-06-25T10:23:24.393Z,3.30
2019-06-25T10:25:54.104Z,3.37
2019-06-25T10:28:30.120Z,3.30
2019-06-25T10:30:55.753Z,3.07
2019-06-25T10:33:25.753Z,3.50
2019-06-25T10:35:55.459Z,3.10
2019-06-25T10:38:25.235Z,3.37
2019-06-25T10:40:55.000Z,3.43
2019-06-25T10:43:24.763Z,3.20
2019-06-25T10:45:54.470Z,3.77
2019-06-25T10:48:26.737Z,3.20
2019-06-25T10:50:55.843Z,4.03
2019-06-25T10:53:25.675Z,3.43
2019-06-25T10:55:55.866Z,3.43
2019-06-25T10:58:25.805Z,2.87
2019-06-25T11:00:56.156Z,3.40
2019-06-25T11:03:26.094Z,3.37
2019-06-25T11:06:05.070Z,3.50
2019-06-25T11:08:27.377Z,3.80
2019-06-25T11:10:57.138Z,3.30
2019-06-25T11:13:26.819Z,3.00
2019-06-25T11:15:56.601Z,3.40
2019-06-25T11:18:26.353Z,3.87
2019-06-25T11:20:56.078Z,3.50
2019-06-25T11:23:25.841Z,3.57
2019-06-25T11:26:20.687Z,3.47
2019-06-25T11:28:27.088Z,3.67
2019-06-25T11:30:56.905Z,3.30
2019-06-25T11:33:26.688Z,3.23
2019-06-25T11:35:56.411Z,3.50
2019-06-25T11:38:26.257Z,3.23
2019-06-25T11:40:56.106Z,3.63
2019-06-25T11:43:25.826Z,3.30
2019-06-25T11:45:55.527Z,3.30
2019-06-25T11:48:25.238Z,3.43
2019-06-25T11:50:54.994Z,3.37
2019-06-25T11:53:24.696Z,3.90
2019-06-25T11:55:54.526Z,3.63
2019-06-25T11:58:24.226Z,3.73
2019-06-25T12:00:54.041Z,4.07
2019-06-25T12:03:23.767Z,4.40
2019-06-25T12:05:53.457Z,3.83
2019-06-25T12:08:23.228Z,3.63
2019-06-25T12:10:53.162Z,3.90
2019-06-25T12:13:23.015Z,3.90
2019-06-25T12:15:52.818Z,3.80
2019-06-25T12:18:22.657Z,3.67
2019-06-25T12:20:52.423Z,4.30
2019-06-25T12:23:22.202Z,4.40
2019-06-25T12:25:51.894Z,4.67
2019-06-25T12:28:21.679Z,4.10
2019-06-25T12:30:51.504Z,4.10
2019-06-25T12:33:21.279Z,4.00
2019-06-25T12:35:51.035Z,4.87
2019-06-25T12:38:20.798Z,4.77
2019-06-25T12:40:51.270Z,5.00
2019-06-25T12:43:21.963Z,4.70
2019-06-25T12:45:51.745Z,3.87
2019-06-25T12:48:21.519Z,4.70
2019-06-25T12:50:51.301Z,4.43
2019-06-25T12:53:21.011Z,5.10
2019-06-25T12:55:50.776Z,4.90
2019-06-25T12:58:20.602Z,4.10
2019-06-25T13:00:50.308Z,4.60
2019-06-25T13:03:20.085Z,4.63
2019-06-25T13:05:49.854Z,4.70
2019-06-25T13:08:19.673Z,4.93
2019-06-25T13:10:49.661Z,4.63
2019-06-25T13:13:19.440Z,4.43
2019-06-25T13:15:49.160Z,4.53
2019-06-25T13:18:18.917Z,4.80
2019-06-25T13:20:48.690Z,4.90
2019-06-25T13:23:18.385Z,5.33
2019-06-25T13:25:49.736Z,4.43
2019-06-25T13:28:19.976Z,4.70
2019-06-25T13:30:49.662Z,4.43
2019-06-25T13:33:19.530Z,4.63
2019-06-25T13:35:49.381Z,4.93
2019-06-25T13:38:19.093Z,4.63
2019-06-25T13:40:49.151Z,4.70
2019-06-25T13:43:18.849Z,4.70
2019-06-25T13:45:48.672Z,4.37
2019-06-25T13:48:18.414Z,5.47
2019-06-25T13:50:48.093Z,4.37
2019-06-25T13:53:17.897Z,4.90
2019-06-25T13:55:48.713Z,4.87
2019-06-25T13:58:18.458Z,4.80
2019-06-25T14:00:48.213Z,5.10
2019-06-25T14:03:18.061Z,5.30
2019-06-25T14:05:47.759Z,4.80
2019-06-25T14:08:17.599Z,4.70
2019-06-25T14:10:47.281Z,4.30
2019-06-25T14:13:16.978Z,4.70
2019-06-25T14:15:46.682Z,4.63
2019-06-25T14:18:16.554Z,4.37
2019-06-25T14:20:46.239Z,5.20
2019-06-25T14:23:16.007Z,6.20
2019-06-25T14:25:45.774Z,5.13
2019-06-25T14:28:15.579Z,4.60
2019-06-25T14:30:45.359Z,5.27
2019-06-25T14:33:15.246Z,4.83
2019-06-25T14:35:47.321Z,4.60
2019-06-25T14:38:16.835Z,4.33
2019-06-25T14:40:46.855Z,4.97
2019-06-25T14:43:16.644Z,4.00
2019-06-25T14:45:46.341Z,4.30
2019-06-25T14:48:16.089Z,4.77
2019-06-25T14:50:45.803Z,4.73
2019-06-25T14:53:17.132Z,4.30
2019-06-25T14:55:46.835Z,5.00
2019-06-25T14:58:16.525Z,4.67
2019-06-25T15:00:46.296Z,4.00
2019-06-25T15:03:16.094Z,4.40
2019-06-25T15:05:45.873Z,4.60
2019-06-25T15:08:30.127Z,4.87
2019-06-25T15:10:47.510Z,5.07
2019-06-25T15:13:18.173Z,4.80
2019-06-25T15:15:47.970Z,5.33
2019-06-25T15:18:18.698Z,5.60
2019-06-25T15:20:48.551Z,4.87
2019-06-25T15:23:18.327Z,4.37
2019-06-25T15:25:48.048Z,5.67
2019-06-25T15:28:19.104Z,4.93
2019-06-25T15:30:49.032Z,5.50
2019-06-25T15:33:19.754Z,4.10
2019-06-25T15:35:49.533Z,5.03
2019-06-25T15:38:19.291Z,5.60
2019-06-25T15:40:49.139Z,5.23
2019-06-25T15:43:18.832Z,5.27
2019-06-25T15:45:48.600Z,4.90
2019-06-25T15:48:19.388Z,4.60
2019-06-25T15:50:49.100Z,4.30
2019-06-25T15:53:18.833Z,4.70
2019-06-25T15:55:48.611Z,4.57
2019-06-25T15:58:18.372Z,5.10
2019-06-25T16:00:49.273Z,6.03
2019-06-25T16:03:18.953Z,5.67
2019-06-25T16:05:48.682Z,5.50
2019-06-25T16:08:18.438Z,5.30
2019-06-25T16:10:48.289Z,5.90
2019-06-25T16:13:18.106Z,5.83
2019-06-25T16:15:47.914Z,5.73
2019-06-25T16:18:18.190Z,4.93
2019-06-25T16:20:47.962Z,6.00
2019-06-25T16:23:17.661Z,6.37
2019-06-25T16:25:49.234Z,5.77
2019-06-25T16:28:18.950Z,5.60
2019-06-25T16:30:48.693Z,5.33
2019-06-25T16:33:18.578Z,5.90
2019-06-25T16:35:49.550Z,5.83
2019-06-25T16:38:30.650Z,5.73
2019-06-25T16:40:51.211Z,6.30
2019-06-25T16:43:23.368Z,5.47
2019-06-25T16:46:00.707Z,6.10
2019-06-25T16:48:29.396Z,5.97
2019-06-25T16:50:59.644Z,5.73
2019-06-25T16:53:29.476Z,6.10
2019-06-25T16:55:59.413Z,6.20
2019-06-25T16:58:29.153Z,5.50
2019-06-25T17:00:58.867Z,5.67
2019-06-25T17:03:28.556Z,6.00
2019-06-25T17:05:58.386Z,6.27
2019-06-25T17:08:28.166Z,6.10
2019-06-25T17:10:59.050Z,6.10
2019-06-25T17:13:28.826Z,6.00
2019-06-25T17:15:58.657Z,6.67
2019-06-25T17:18:28.430Z,5.60
2019-06-25T17:20:58.236Z,6.80
2019-06-25T17:23:27.929Z,5.93
2019-06-25T17:25:57.840Z,6.20
2019-06-25T17:28:27.553Z,5.57
2019-06-25T17:30:57.274Z,6.93
2019-06-25T17:33:27.057Z,6.20
2019-06-25T17:35:56.853Z,5.50
2019-06-25T17:38:45.592Z,5.60
2019-06-25T17:41:02.732Z,5.93
2019-06-25T17:43:46.439Z,5.83
2019-06-25T17:46:04.250Z,6.03
2019-06-25T17:48:34.011Z,6.33
2019-06-25T17:51:04.880Z,5.93
2019-06-25T17:53:36.824Z,6.17
2019-06-25T17:56:06.137Z,6.70
2019-06-25T17:58:35.851Z,6.00
2019-06-25T18:01:05.970Z,6.80
2019-06-25T18:03:35.765Z,6.17
2019-06-25T18:06:06.673Z,6.33
2019-06-25T18:08:36.534Z,5.47
2019-06-25T18:11:12.264Z,6.40
2019-06-25T18:13:47.083Z,6.00
2019-06-25T18:16:25.585Z,7.20
2019-06-25T18:18:55.549Z,6.43
2019-06-25T18:21:25.466Z,5.90
2019-06-25T18:23:57.135Z,6.37
2019-06-25T18:26:26.961Z,6.40
2019-06-25T18:28:57.917Z,6.70
2019-06-25T18:31:30.367Z,6.47
2019-06-25T18:34:00.337Z,6.10
2019-06-25T18:36:30.069Z,6.20
2019-06-25T18:41:31.990Z,6.50
2019-06-25T18:44:01.753Z,6.87
2019-06-25T18:46:31.618Z,6.50
2019-06-25T18:51:48.485Z,7.73
2019-06-25T18:54:20.925Z,7.53
2019-06-25T18:56:57.372Z,7.10
2019-06-25T18:59:27.216Z,8.13
2019-06-25T19:01:57.015Z,7.90
2019-06-25T19:04:26.805Z,7.90
2019-06-25T19:06:56.488Z,7.33
2019-06-25T19:09:26.273Z,8.20
2019-06-25T19:11:56.056Z,8.87
2019-06-25T19:14:25.856Z,8.63
2019-06-25T19:16:55.600Z,8.90
2019-06-25T19:19:25.277Z,8.53
2019-06-25T19:21:55.045Z,9.23
2019-06-25T19:24:24.800Z,9.63
2019-06-25T19:26:54.622Z,10.70
2019-06-25T19:29:24.390Z,10.27
2019-06-25T19:31:54.200Z,10.40
2019-06-25T19:34:23.882Z,9.07
2019-06-25T19:36:53.616Z,11.10
2019-06-25T19:39:23.465Z,11.07
2019-06-25T19:41:53.194Z,10.23
2019-06-25T19:44:22.978Z,9.80
2019-06-25T19:46:52.822Z,9.23
2019-06-25T19:49:22.532Z,9.90
2019-06-25T19:51:52.236Z,10.63
2019-06-25T19:54:22.142Z,10.33
2019-06-25T19:56:51.954Z,11.50
2019-06-25T19:59:21.678Z,12.60
2019-06-25T20:01:51.373Z,11.90
2019-06-25T20:04:21.089Z,11.97
2019-06-25T20:06:50.865Z,10.80
2019-06-25T20:09:20.650Z,11.17
2019-06-25T20:11:50.442Z,11.70
2019-06-25T20:14:20.148Z,11.33
2019-06-25T20:16:49.856Z,11.33
2019-06-25T20:19:19.580Z,11.03
2019-06-25T20:21:49.273Z,11.40
2019-06-25T20:24:18.982Z,10.43
2019-06-25T20:26:48.673Z,12.27
2019-06-25T20:29:18.389Z,11.43
2019-06-25T20:31:48.087Z,12.00
2019-06-25T20:34:17.861Z,11.97
2019-06-25T20:36:47.634Z,11.33
2019-06-25T20:39:20.292Z,10.60
2019-06-25T20:41:50.622Z,9.63
2019-06-25T20:44:20.485Z,9.97
2019-06-25T20:46:50.261Z,11.20
2019-06-25T20:49:20.144Z,11.13
2019-06-25T20:51:49.863Z,11.03
2019-06-25T20:54:19.619Z,11.90
2019-06-25T20:56:49.313Z,10.90
2019-06-25T20:59:19.042Z,11.03
2019-06-25T21:01:48.832Z,11.20
2019-06-25T21:04:18.641Z,11.50
2019-06-25T21:06:48.441Z,10.43
2019-06-25T21:09:18.164Z,10.70
2019-06-25T21:11:49.221Z,10.90
2019-06-25T21:14:20.121Z,11.37
2019-06-25T21:16:49.975Z,11.00
2019-06-25T21:19:19.694Z,12.20
2019-06-25T21:21:49.403Z,11.07
2019-06-25T21:24:19.210Z,11.37
2019-06-25T21:26:48.972Z,11.50
2019-06-25T21:29:18.792Z,12.00
2019-06-25T21:31:48.552Z,11.40
2019-06-25T21:34:18.929Z,12.33
2019-06-25T21:36:49.675Z,12.30
2019-06-25T21:39:19.400Z,12.30
2019-06-25T21:42:03.812Z,11.57
2019-06-25T21:44:20.569Z,11.87
2019-06-25T21:47:05.648Z,11.40
2019-06-25T21:49:21.667Z,11.53
2019-06-25T21:51:52.424Z,11.10
2019-06-25T21:54:22.218Z,11.10
2019-06-25T21:56:52.053Z,11.17
2019-06-25T21:59:21.749Z,10.57
2019-06-25T22:01:53.253Z,12.03
2019-06-25T22:04:22.953Z,9.90
2019-06-25T22:06:52.801Z,11.43
2019-06-25T22:09:22.573Z,10.50
2019-06-25T22:11:52.414Z,11.03
2019-06-25T22:14:23.199Z,10.70
2019-06-25T22:16:53.030Z,10.27
2019-06-25T22:19:24.358Z,10.90
2019-06-25T22:21:54.045Z,11.03
2019-06-25T22:24:23.746Z,11.50
2019-06-25T22:26:53.436Z,10.73
2019-06-25T22:29:23.442Z,10.97
2019-06-25T22:31:54.813Z,9.97
2019-06-25T22:34:25.886Z,10.80
2019-06-25T22:36:55.925Z,10.10
2019-06-25T22:39:25.845Z,10.10
2019-06-25T22:41:55.566Z,10.17
2019-06-25T22:44:25.346Z,11.00
2019-06-25T22:46:55.309Z,10.30
2019-06-25T22:49:25.039Z,10.27
2019-06-25T22:51:54.802Z,11.00
2019-06-25T22:54:24.541Z,11.13
2019-06-25T22:56:54.287Z,10.20
2019-06-25T22:59:23.990Z,11.50
2019-06-25T23:01:53.680Z,9.87
2019-06-25T23:04:23.453Z,10.63
2019-06-25T23:06:53.158Z,9.90
2019-06-25T23:09:23.015Z,10.67
2019-06-25T23:11:52.857Z,10.60
2019-06-25T23:14:22.569Z,10.33
2019-06-25T23:16:52.288Z,11.77
2019-06-25T23:19:22.031Z,11.27
2019-06-25T23:21:52.013Z,10.30
2019-06-25T23:24:21.769Z,10.00
2019-06-25T23:26:52.466Z,9.73
2019-06-25T23:29:22.411Z,10.63
2019-06-25T23:31:52.153Z,10.70
2019-06-25T23:34:21.939Z,10.20
2019-06-25T23:36:51.721Z,9.40
2019-06-25T23:39:21.445Z,10.77
2019-06-25T23:41:51.201Z,10.63
2019-06-25T23:44:20.901Z,10.57
2019-06-25T23:46:50.665Z,11.27
2019-06-25T23:49:20.439Z,10.47
2019-06-25T23:51:50.247Z,10.47
2019-06-25T23:54:19.958Z,10.87
2019-06-25T23:56:50.768Z,10.13
2019-06-25T23:59:20.556Z,9.80
